Accueil
METAR-TAF:

METAR-TAF

Aéroports :

Marham, Angleterre

latitude: 52-39N, longitude: 000-34E, altitude: 23 m

Observation

Le bulletin a été fait il y a 25 minutes, à 04:50 UTC
Vent 3 kt de sud-ouest
Température 4°C
Humidité 93%
Pression 1034 hPa
Visibilité 10 km ou plus
Quelques nuages à une hauteur de 4000 ft

METAR: EGYM 240450Z 23003KT 9999 FEW040 04/03 Q1034 BLU

Heure: 06:15 (05:15 UTC)

Prévision

Le bulletin a été fait il y a 15 heures et 55 minutes, à 13:20 UTC
Prévision valable du 23 à 15 UTC au 23 à 24 UTC
Vent 15 kt de nord/nord-ouest avec des rafales jusqu'à 25 kt
Visibilité 10 km ou plus
Nuages épars à une hauteur de 3000 ft
Temporairement
du 23 à 15 UTC au 23 à 18 UTC
Visibilité: 7000 m
Nuages épars à une hauteur de 2000 ft
averses de pluie

TAF: EGYM 231320Z 2315/2324 34015G25KT 9999 SCT030 TEMPO 2315/2318 7000 SHRA SCT020

Observations et prévisions météorologiques de plus de 4000 aéroports (messages METAR et TAF).

Les stations disponibles sont représentées par des disques jaunes et rouges sur la carte.

Passer la souris dessus pour voir le nom de la station.

Cliquer dessus pour voir les observations et prévisions météorologiques.

Pour changer de carte: cliquez sur les boutons verts avec une croix noire pour zoomer, sur le bouton vert avec un tiret pour effectuer un zoom arrière, ou sur les flèches vertes pour les cartes adjacentes.


METAR-TAF: